sensor_id;sensor_type;location;lat;lon;timestamp;temperature;humidity
71291;DHT22;59073;51.994;4.448;2023-01-04T00:01:05;9.67;89.38
71291;DHT22;59073;51.994;4.448;2023-01-04T00:03:32;9.73;89.50
71291;DHT22;59073;51.994;4.448;2023-01-04T00:05:59;9.71;89.48
71291;DHT22;59073;51.994;4.448;2023-01-04T00:08:25;9.69;89.52
71291;DHT22;59073;51.994;4.448;2023-01-04T00:10:51;9.69;89.57
71291;DHT22;59073;51.994;4.448;2023-01-04T00:13:19;9.67;89.77
71291;DHT22;59073;51.994;4.448;2023-01-04T00:15:45;9.67;89.84
71291;DHT22;59073;51.994;4.448;2023-01-04T00:18:10;9.66;90.01
71291;DHT22;59073;51.994;4.448;2023-01-04T00:20:36;9.73;89.82
71291;DHT22;59073;51.994;4.448;2023-01-04T00:23:01;9.76;89.72
71291;DHT22;59073;51.994;4.448;2023-01-04T00:25:27;9.70;89.97
71291;DHT22;59073;51.994;4.448;2023-01-04T00:27:52;9.70;90.19
71291;DHT22;59073;51.994;4.448;2023-01-04T00:30:18;9.71;90.11
71291;DHT22;59073;51.994;4.448;2023-01-04T00:32:44;9.77;90.10
71291;DHT22;59073;51.994;4.448;2023-01-04T00:35:10;9.79;90.10
71291;DHT22;59073;51.994;4.448;2023-01-04T00:37:35;9.84;89.93
71291;DHT22;59073;51.994;4.448;2023-01-04T00:40:00;9.93;89.70
71291;DHT22;59073;51.994;4.448;2023-01-04T00:42:26;9.97;89.75
71291;DHT22;59073;51.994;4.448;2023-01-04T00:44:51;9.94;89.72
71291;DHT22;59073;51.994;4.448;2023-01-04T00:47:17;9.98;89.77
71291;DHT22;59073;51.994;4.448;2023-01-04T00:49:42;10.00;89.83
71291;DHT22;59073;51.994;4.448;2023-01-04T00:52:08;10.04;89.72
71291;DHT22;59073;51.994;4.448;2023-01-04T00:54:34;10.08;89.62
71291;DHT22;59073;51.994;4.448;2023-01-04T00:57:00;10.11;89.62
71291;DHT22;59073;51.994;4.448;2023-01-04T00:59:26;10.17;89.62
71291;DHT22;59073;51.994;4.448;2023-01-04T01:01:52;10.25;89.53
71291;DHT22;59073;51.994;4.448;2023-01-04T01:04:20;10.28;89.20
71291;DHT22;59073;51.994;4.448;2023-01-04T01:06:47;10.27;89.43
71291;DHT22;59073;51.994;4.448;2023-01-04T01:09:13;10.31;89.35
71291;DHT22;59073;51.994;4.448;2023-01-04T01:11:40;10.35;89.34
71291;DHT22;59073;51.994;4.448;2023-01-04T01:14:07;10.37;89.29
71291;DHT22;59073;51.994;4.448;2023-01-04T01:16:36;10.39;89.26
71291;DHT22;59073;51.994;4.448;2023-01-04T01:19:03;10.42;89.47
71291;DHT22;59073;51.994;4.448;2023-01-04T01:21:28;10.46;89.36
71291;DHT22;59073;51.994;4.448;2023-01-04T01:23:56;10.46;89.49
71291;DHT22;59073;51.994;4.448;2023-01-04T01:26:23;10.45;89.71
71291;DHT22;59073;51.994;4.448;2023-01-04T01:28:52;10.53;89.72
71291;DHT22;59073;51.994;4.448;2023-01-04T01:31:25;10.55;89.53
71291;DHT22;59073;51.994;4.448;2023-01-04T01:33:54;10.55;89.59
71291;DHT22;59073;51.994;4.448;2023-01-04T01:36:21;10.56;89.64
71291;DHT22;59073;51.994;4.448;2023-01-04T01:38:48;10.56;89.61
71291;DHT22;59073;51.994;4.448;2023-01-04T01:41:18;10.56;89.66
71291;DHT22;59073;51.994;4.448;2023-01-04T01:43:58;10.59;89.52
71291;DHT22;59073;51.994;4.448;2023-01-04T01:46:43;10.62;89.54
71291;DHT22;59073;51.994;4.448;2023-01-04T01:49:27;10.72;89.24
71291;DHT22;59073;51.994;4.448;2023-01-04T01:51:59;10.73;89.33
71291;DHT22;59073;51.994;4.448;2023-01-04T01:54:31;10.75;89.23
71291;DHT22;59073;51.994;4.448;2023-01-04T01:57:02;10.75;89.37
71291;DHT22;59073;51.994;4.448;2023-01-04T01:59:31;10.79;89.18
71291;DHT22;59073;51.994;4.448;2023-01-04T02:01:58;10.79;89.33
71291;DHT22;59073;51.994;4.448;2023-01-04T02:04:23;10.79;89.27
71291;DHT22;59073;51.994;4.448;2023-01-04T02:06:55;10.83;89.14
71291;DHT22;59073;51.994;4.448;2023-01-04T02:09:33;10.89;89.07
71291;DHT22;59073;51.994;4.448;2023-01-04T02:12:11;10.93;88.97
71291;DHT22;59073;51.994;4.448;2023-01-04T02:14:40;10.89;89.10
71291;DHT22;59073;51.994;4.448;2023-01-04T02:20:27;10.92;89.22
71291;DHT22;59073;51.994;4.448;2023-01-04T02:35:14;11.04;89.55
71291;DHT22;59073;51.994;4.448;2023-01-04T02:43:19;11.09;89.19
71291;DHT22;59073;51.994;4.448;2023-01-04T02:46:30;11.07;89.60
71291;DHT22;59073;51.994;4.448;2023-01-04T02:49:22;11.10;89.51
71291;DHT22;59073;51.994;4.448;2023-01-04T02:52:10;11.04;89.67
71291;DHT22;59073;51.994;4.448;2023-01-04T02:58:08;11.17;89.31
71291;DHT22;59073;51.994;4.448;2023-01-04T03:00:54;11.23;89.21
71291;DHT22;59073;51.994;4.448;2023-01-04T03:13:27;11.10;89.74
71291;DHT22;59073;51.994;4.448;2023-01-04T03:16:16;11.09;89.75
71291;DHT22;59073;51.994;4.448;2023-01-04T03:18:59;11.16;89.80
71291;DHT22;59073;51.994;4.448;2023-01-04T03:21:36;11.17;89.73
71291;DHT22;59073;51.994;4.448;2023-01-04T03:24:11;11.17;89.69
71291;DHT22;59073;51.994;4.448;2023-01-04T03:27:03;11.17;89.78
71291;DHT22;59073;51.994;4.448;2023-01-04T03:30:05;11.20;89.63
71291;DHT22;59073;51.994;4.448;2023-01-04T03:33:03;11.26;89.78
71291;DHT22;59073;51.994;4.448;2023-01-04T03:36:11;11.21;89.88
71291;DHT22;59073;51.994;4.448;2023-01-04T03:44:28;11.30;89.74
71291;DHT22;59073;51.994;4.448;2023-01-04T03:47:30;11.26;89.74
71291;DHT22;59073;51.994;4.448;2023-01-04T03:50:27;11.31;89.56
71291;DHT22;59073;51.994;4.448;2023-01-04T03:52:56;11.35;89.56
71291;DHT22;59073;51.994;4.448;2023-01-04T03:55:26;11.37;89.36
71291;DHT22;59073;51.994;4.448;2023-01-04T03:57:57;11.37;89.55
71291;DHT22;59073;51.994;4.448;2023-01-04T04:00:47;11.38;89.73
71291;DHT22;59073;51.994;4.448;2023-01-04T04:03:14;11.37;89.64
71291;DHT22;59073;51.994;4.448;2023-01-04T04:05:48;11.45;89.42
71291;DHT22;59073;51.994;4.448;2023-01-04T04:08:38;11.50;89.36
71291;DHT22;59073;51.994;4.448;2023-01-04T04:11:12;11.55;88.83
71291;DHT22;59073;51.994;4.448;2023-01-04T04:13:57;11.62;88.72
71291;DHT22;59073;51.994;4.448;2023-01-04T04:16:37;11.71;88.61
71291;DHT22;59073;51.994;4.448;2023-01-04T04:19:08;11.65;88.68
71291;DHT22;59073;51.994;4.448;2023-01-04T04:21:50;11.86;88.25
71291;DHT22;59073;51.994;4.448;2023-01-04T04:24:23;11.91;87.90
71291;DHT22;59073;51.994;4.448;2023-01-04T04:27:07;11.95;87.82
71291;DHT22;59073;51.994;4.448;2023-01-04T04:29:40;11.92;88.02
71291;DHT22;59073;51.994;4.448;2023-01-04T04:32:11;11.96;88.07
71291;DHT22;59073;51.994;4.448;2023-01-04T04:34:39;11.96;88.11
71291;DHT22;59073;51.994;4.448;2023-01-04T04:37:11;11.89;88.32
71291;DHT22;59073;51.994;4.448;2023-01-04T04:39:39;11.92;88.80
71291;DHT22;59073;51.994;4.448;2023-01-04T04:42:12;12.00;88.65
71291;DHT22;59073;51.994;4.448;2023-01-04T04:44:52;11.96;88.47
71291;DHT22;59073;51.994;4.448;2023-01-04T04:47:21;11.99;88.60
71291;DHT22;59073;51.994;4.448;2023-01-04T04:50:00;11.85;89.05
71291;DHT22;59073;51.994;4.448;2023-01-04T04:54:59;11.85;89.31
71291;DHT22;59073;51.994;4.448;2023-01-04T04:57:35;11.85;89.26
71291;DHT22;59073;51.994;4.448;2023-01-04T05:00:15;11.77;89.40
71291;DHT22;59073;51.994;4.448;2023-01-04T05:03:21;11.78;89.60
71291;DHT22;59073;51.994;4.448;2023-01-04T05:06:10;11.81;89.74
71291;DHT22;59073;51.994;4.448;2023-01-04T05:09:21;11.78;89.71
71291;DHT22;59073;51.994;4.448;2023-01-04T05:11:46;11.82;89.62
71291;DHT22;59073;51.994;4.448;2023-01-04T05:14:33;11.83;89.72
71291;DHT22;59073;51.994;4.448;2023-01-04T05:17:05;11.85;89.56
71291;DHT22;59073;51.994;4.448;2023-01-04T05:19:30;11.83;89.55
71291;DHT22;59073;51.994;4.448;2023-01-04T05:21:56;11.85;89.85
71291;DHT22;59073;51.994;4.448;2023-01-04T05:24:21;11.82;89.72
71291;DHT22;59073;51.994;4.448;2023-01-04T05:26:47;11.91;89.65
71291;DHT22;59073;51.994;4.448;2023-01-04T05:29:12;11.89;89.92
71291;DHT22;59073;51.994;4.448;2023-01-04T05:31:58;11.95;89.74
71291;DHT22;59073;51.994;4.448;2023-01-04T05:34:23;11.83;89.79
71291;DHT22;59073;51.994;4.448;2023-01-04T05:36:49;11.89;89.79
71291;DHT22;59073;51.994;4.448;2023-01-04T05:39:17;11.88;89.71
71291;DHT22;59073;51.994;4.448;2023-01-04T05:41:42;11.92;89.77
71291;DHT22;59073;51.994;4.448;2023-01-04T05:44:26;11.82;89.61
71291;DHT22;59073;51.994;4.448;2023-01-04T05:46:51;11.92;89.77
71291;DHT22;59073;51.994;4.448;2023-01-04T05:49:17;11.91;89.56
71291;DHT22;59073;51.994;4.448;2023-01-04T05:51:42;11.91;89.42
71291;DHT22;59073;51.994;4.448;2023-01-04T05:54:08;11.91;89.63
71291;DHT22;59073;51.994;4.448;2023-01-04T05:56:33;11.91;89.61
71291;DHT22;59073;51.994;4.448;2023-01-04T05:58:58;12.03;89.39
71291;DHT22;59073;51.994;4.448;2023-01-04T06:01:24;12.00;89.08
71291;DHT22;59073;51.994;4.448;2023-01-04T06:04:11;11.98;89.35
71291;DHT22;59073;51.994;4.448;2023-01-04T06:06:38;12.03;89.28
71291;DHT22;59073;51.994;4.448;2023-01-04T06:09:42;12.13;88.93
71291;DHT22;59073;51.994;4.448;2023-01-04T06:12:11;12.20;88.63
71291;DHT22;59073;51.994;4.448;2023-01-04T06:14:40;12.22;88.43
71291;DHT22;59073;51.994;4.448;2023-01-04T06:20:42;12.19;88.70
71291;DHT22;59073;51.994;4.448;2023-01-04T06:23:08;12.19;88.71
71291;DHT22;59073;51.994;4.448;2023-01-04T06:25:36;12.13;88.80
71291;DHT22;59073;51.994;4.448;2023-01-04T06:28:31;12.12;89.08
71291;DHT22;59073;51.994;4.448;2023-01-04T06:30:57;12.18;88.79
71291;DHT22;59073;51.994;4.448;2023-01-04T06:33:31;12.18;88.96
71291;DHT22;59073;51.994;4.448;2023-01-04T06:36:00;12.23;89.03
71291;DHT22;59073;51.994;4.448;2023-01-04T06:38:32;12.26;88.72
71291;DHT22;59073;51.994;4.448;2023-01-04T06:41:08;12.26;88.59
71291;DHT22;59073;51.994;4.448;2023-01-04T06:43:43;12.22;89.08
71291;DHT22;59073;51.994;4.448;2023-01-04T06:46:26;12.28;88.88
71291;DHT22;59073;51.994;4.448;2023-01-04T06:49:46;12.22;88.97
71291;DHT22;59073;51.994;4.448;2023-01-04T06:55:11;12.19;89.00
71291;DHT22;59073;51.994;4.448;2023-01-04T06:57:40;12.26;89.15
71291;DHT22;59073;51.994;4.448;2023-01-04T07:00:06;12.22;89.06
71291;DHT22;59073;51.994;4.448;2023-01-04T07:02:33;12.32;88.98
71291;DHT22;59073;51.994;4.448;2023-01-04T07:05:02;12.25;89.13
71291;DHT22;59073;51.994;4.448;2023-01-04T07:07:28;12.30;88.91
71291;DHT22;59073;51.994;4.448;2023-01-04T07:09:53;12.26;89.21
71291;DHT22;59073;51.994;4.448;2023-01-04T07:12:19;12.34;89.03
71291;DHT22;59073;51.994;4.448;2023-01-04T07:14:47;12.32;88.95
71291;DHT22;59073;51.994;4.448;2023-01-04T07:17:15;12.32;89.21
71291;DHT22;59073;51.994;4.448;2023-01-04T07:19:44;12.32;89.22
71291;DHT22;59073;51.994;4.448;2023-01-04T07:22:12;12.33;89.07
71291;DHT22;59073;51.994;4.448;2023-01-04T07:24:51;12.30;89.24
71291;DHT22;59073;51.994;4.448;2023-01-04T07:27:42;12.29;89.44
71291;DHT22;59073;51.994;4.448;2023-01-04T07:30:33;12.29;89.59
71291;DHT22;59073;51.994;4.448;2023-01-04T07:32:59;12.30;89.45
71291;DHT22;59073;51.994;4.448;2023-01-04T07:35:25;12.36;89.20
71291;DHT22;59073;51.994;4.448;2023-01-04T07:37:51;12.34;89.16
71291;DHT22;59073;51.994;4.448;2023-01-04T07:40:16;12.29;89.39
71291;DHT22;59073;51.994;4.448;2023-01-04T07:46:59;12.43;89.18
71291;DHT22;59073;51.994;4.448;2023-01-04T07:49:30;12.37;89.03
71291;DHT22;59073;51.994;4.448;2023-01-04T07:52:11;12.34;89.45
71291;DHT22;59073;51.994;4.448;2023-01-04T07:58:13;12.33;89.84
71291;DHT22;59073;51.994;4.448;2023-01-04T08:07:36;12.40;89.81
71291;DHT22;59073;51.994;4.448;2023-01-04T08:10:42;12.39;90.02
71291;DHT22;59073;51.994;4.448;2023-01-04T08:16:57;12.37;90.06
71291;DHT22;59073;51.994;4.448;2023-01-04T08:32:05;12.41;90.02
71291;DHT22;59073;51.994;4.448;2023-01-04T08:34:40;12.44;90.14
71291;DHT22;59073;51.994;4.448;2023-01-04T08:37:05;12.44;89.81
71291;DHT22;59073;51.994;4.448;2023-01-04T08:39:37;12.46;89.94
71291;DHT22;59073;51.994;4.448;2023-01-04T08:42:09;12.49;89.94
71291;DHT22;59073;51.994;4.448;2023-01-04T08:44:35;12.49;89.90
71291;DHT22;59073;51.994;4.448;2023-01-04T08:47:01;12.46;89.95
71291;DHT22;59073;51.994;4.448;2023-01-04T08:49:29;12.49;89.98
71291;DHT22;59073;51.994;4.448;2023-01-04T08:52:06;12.51;89.95
71291;DHT22;59073;51.994;4.448;2023-01-04T08:54:33;12.50;90.00
71291;DHT22;59073;51.994;4.448;2023-01-04T08:57:18;12.50;90.10
71291;DHT22;59073;51.994;4.448;2023-01-04T09:03:33;12.56;90.26
71291;DHT22;59073;51.994;4.448;2023-01-04T09:06:41;12.53;90.05
71291;DHT22;59073;51.994;4.448;2023-01-04T09:09:44;12.54;89.98
71291;DHT22;59073;51.994;4.448;2023-01-04T09:12:22;12.56;89.97
71291;DHT22;59073;51.994;4.448;2023-01-04T09:18:14;12.59;89.91
71291;DHT22;59073;51.994;4.448;2023-01-04T09:20:56;12.60;89.89
71291;DHT22;59073;51.994;4.448;2023-01-04T09:30:03;12.63;89.84
71291;DHT22;59073;51.994;4.448;2023-01-04T09:32:41;12.65;89.68
71291;DHT22;59073;51.994;4.448;2023-01-04T09:35:08;12.64;89.87
71291;DHT22;59073;51.994;4.448;2023-01-04T09:37:34;12.65;89.68
71291;DHT22;59073;51.994;4.448;2023-01-04T09:39:59;12.70;89.57
71291;DHT22;59073;51.994;4.448;2023-01-04T09:42:33;12.67;89.42
71291;DHT22;59073;51.994;4.448;2023-01-04T09:45:21;12.70;89.33
71291;DHT22;59073;51.994;4.448;2023-01-04T09:50:52;12.68;89.38
71291;DHT22;59073;51.994;4.448;2023-01-04T09:53:23;12.64;89.37
71291;DHT22;59073;51.994;4.448;2023-01-04T09:56:06;12.73;89.17
71291;DHT22;59073;51.994;4.448;2023-01-04T09:58:35;12.70;89.08
71291;DHT22;59073;51.994;4.448;2023-01-04T10:01:54;12.73;89.13
71291;DHT22;59073;51.994;4.448;2023-01-04T10:04:26;12.71;88.90
71291;DHT22;59073;51.994;4.448;2023-01-04T10:06:54;12.77;89.05
71291;DHT22;59073;51.994;4.448;2023-01-04T10:09:22;12.77;88.96
71291;DHT22;59073;51.994;4.448;2023-01-04T10:14:57;12.77;89.00
71291;DHT22;59073;51.994;4.448;2023-01-04T10:20:35;12.71;89.26
71291;DHT22;59073;51.994;4.448;2023-01-04T10:26:13;12.74;89.42
71291;DHT22;59073;51.994;4.448;2023-01-04T10:32:18;12.76;89.31
71291;DHT22;59073;51.994;4.448;2023-01-04T10:34:47;12.77;89.37
71291;DHT22;59073;51.994;4.448;2023-01-04T10:37:23;12.87;89.41
71291;DHT22;59073;51.994;4.448;2023-01-04T10:39:51;12.84;89.21
71291;DHT22;59073;51.994;4.448;2023-01-04T10:45:14;12.85;88.73
71291;DHT22;59073;51.994;4.448;2023-01-04T10:48:09;12.87;88.69
71291;DHT22;59073;51.994;4.448;2023-01-04T10:50:55;12.91;88.55
71291;DHT22;59073;51.994;4.448;2023-01-04T10:56:10;12.91;88.41
71291;DHT22;59073;51.994;4.448;2023-01-04T10:58:46;12.91;88.34
71291;DHT22;59073;51.994;4.448;2023-01-04T11:01:20;12.97;88.22
71291;DHT22;59073;51.994;4.448;2023-01-04T11:04:00;13.01;87.93
71291;DHT22;59073;51.994;4.448;2023-01-04T11:06:47;13.10;87.70
71291;DHT22;59073;51.994;4.448;2023-01-04T11:09:24;13.14;87.50
71291;DHT22;59073;51.994;4.448;2023-01-04T11:11:56;13.18;87.22
71291;DHT22;59073;51.994;4.448;2023-01-04T11:14:25;13.18;87.13
71291;DHT22;59073;51.994;4.448;2023-01-04T11:16:58;13.16;87.09
71291;DHT22;59073;51.994;4.448;2023-01-04T11:19:28;13.18;87.11
71291;DHT22;59073;51.994;4.448;2023-01-04T11:24:31;13.18;86.86
71291;DHT22;59073;51.994;4.448;2023-01-04T11:27:12;13.12;87.00
71291;DHT22;59073;51.994;4.448;2023-01-04T11:29:48;13.16;87.03
71291;DHT22;59073;51.994;4.448;2023-01-04T11:32:17;13.14;86.94
71291;DHT22;59073;51.994;4.448;2023-01-04T11:34:52;13.15;86.74
71291;DHT22;59073;51.994;4.448;2023-01-04T11:37:27;13.16;86.71
71291;DHT22;59073;51.994;4.448;2023-01-04T11:42:51;13.21;86.57
71291;DHT22;59073;51.994;4.448;2023-01-04T11:45:25;13.23;86.04
71291;DHT22;59073;51.994;4.448;2023-01-04T11:47:54;13.21;86.14
71291;DHT22;59073;51.994;4.448;2023-01-04T11:52:59;13.26;85.96
71291;DHT22;59073;51.994;4.448;2023-01-04T11:55:29;13.35;85.71
71291;DHT22;59073;51.994;4.448;2023-01-04T12:00:30;13.32;85.51
71291;DHT22;59073;51.994;4.448;2023-01-04T12:03:10;13.41;85.27
71291;DHT22;59073;51.994;4.448;2023-01-04T12:05:37;13.42;85.18
71291;DHT22;59073;51.994;4.448;2023-01-04T12:08:03;13.46;85.07
71291;DHT22;59073;51.994;4.448;2023-01-04T12:10:29;13.49;84.74
71291;DHT22;59073;51.994;4.448;2023-01-04T12:12:56;13.46;85.01
71291;DHT22;59073;51.994;4.448;2023-01-04T12:16:15;13.43;85.05
71291;DHT22;59073;51.994;4.448;2023-01-04T12:18:43;13.39;85.18
71291;DHT22;59073;51.994;4.448;2023-01-04T12:21:24;13.38;85.17
71291;DHT22;59073;51.994;4.448;2023-01-04T12:23:52;13.36;85.23
71291;DHT22;59073;51.994;4.448;2023-01-04T12:26:19;13.32;85.35
71291;DHT22;59073;51.994;4.448;2023-01-04T12:28:50;13.29;85.46
71291;DHT22;59073;51.994;4.448;2023-01-04T12:33:51;13.26;85.59
71291;DHT22;59073;51.994;4.448;2023-01-04T12:36:18;13.26;85.55
71291;DHT22;59073;51.994;4.448;2023-01-04T12:41:20;13.22;85.59
71291;DHT22;59073;51.994;4.448;2023-01-04T12:43:45;13.25;85.83
71291;DHT22;59073;51.994;4.448;2023-01-04T12:46:39;13.28;85.64
71291;DHT22;59073;51.994;4.448;2023-01-04T12:54:56;13.19;85.15
71291;DHT22;59073;51.994;4.448;2023-01-04T12:57:30;13.23;85.23
71291;DHT22;59073;51.994;4.448;2023-01-04T13:02:29;13.14;85.39
71291;DHT22;59073;51.994;4.448;2023-01-04T13:05:31;13.19;85.45
71291;DHT22;59073;51.994;4.448;2023-01-04T13:08:09;13.15;85.41
71291;DHT22;59073;51.994;4.448;2023-01-04T13:10:41;13.18;85.33
71291;DHT22;59073;51.994;4.448;2023-01-04T13:16:18;13.16;85.28
71291;DHT22;59073;51.994;4.448;2023-01-04T13:19:25;13.12;85.17
71291;DHT22;59073;51.994;4.448;2023-01-04T13:21:53;13.16;85.09
71291;DHT22;59073;51.994;4.448;2023-01-04T13:24:27;13.18;85.17
71291;DHT22;59073;51.994;4.448;2023-01-04T13:27:25;13.22;84.87
71291;DHT22;59073;51.994;4.448;2023-01-04T13:29:55;13.26;84.94
71291;DHT22;59073;51.994;4.448;2023-01-04T13:32:31;13.23;84.72
71291;DHT22;59073;51.994;4.448;2023-01-04T13:35:12;13.25;84.56
71291;DHT22;59073;51.994;4.448;2023-01-04T13:37:46;13.32;84.41
71291;DHT22;59073;51.994;4.448;2023-01-04T13:40:45;13.32;84.26
71291;DHT22;59073;51.994;4.448;2023-01-04T13:46:20;13.29;84.11
71291;DHT22;59073;51.994;4.448;2023-01-04T13:48:57;13.35;83.82
71291;DHT22;59073;51.994;4.448;2023-01-04T13:51:30;13.39;83.87
71291;DHT22;59073;51.994;4.448;2023-01-04T13:54:15;13.36;83.63
71291;DHT22;59073;51.994;4.448;2023-01-04T13:57:12;13.39;83.51
71291;DHT22;59073;51.994;4.448;2023-01-04T13:59:42;13.41;83.16
71291;DHT22;59073;51.994;4.448;2023-01-04T14:02:16;13.41;83.04
71291;DHT22;59073;51.994;4.448;2023-01-04T14:05:14;13.41;82.51
71291;DHT22;59073;51.994;4.448;2023-01-04T14:07:47;13.41;82.98
71291;DHT22;59073;51.994;4.448;2023-01-04T14:10:22;13.42;82.70
71291;DHT22;59073;51.994;4.448;2023-01-04T14:12:52;13.42;82.55
71291;DHT22;59073;51.994;4.448;2023-01-04T14:15:25;13.35;82.56
71291;DHT22;59073;51.994;4.448;2023-01-04T14:17:52;13.41;82.54
71291;DHT22;59073;51.994;4.448;2023-01-04T14:20:35;13.39;82.56
71291;DHT22;59073;51.994;4.448;2023-01-04T14:23:51;13.39;82.51
71291;DHT22;59073;51.994;4.448;2023-01-04T14:36:31;13.31;82.43
71291;DHT22;59073;51.994;4.448;2023-01-04T14:39:10;13.34;82.40
71291;DHT22;59073;51.994;4.448;2023-01-04T14:41:42;13.34;82.50
71291;DHT22;59073;51.994;4.448;2023-01-04T14:44:27;13.31;82.20
71291;DHT22;59073;51.994;4.448;2023-01-04T14:47:10;13.26;82.25
71291;DHT22;59073;51.994;4.448;2023-01-04T14:49:39;13.25;82.49
71291;DHT22;59073;51.994;4.448;2023-01-04T14:52:34;13.21;82.42
71291;DHT22;59073;51.994;4.448;2023-01-04T14:55:03;13.22;82.65
71291;DHT22;59073;51.994;4.448;2023-01-04T14:57:33;13.22;82.56
71291;DHT22;59073;51.994;4.448;2023-01-04T15:00:02;13.18;82.30
71291;DHT22;59073;51.994;4.448;2023-01-04T15:02:33;13.14;82.54
71291;DHT22;59073;51.994;4.448;2023-01-04T15:05:21;13.12;82.64
71291;DHT22;59073;51.994;4.448;2023-01-04T15:11:45;13.11;82.70
71291;DHT22;59073;51.994;4.448;2023-01-04T15:14:16;13.14;82.39
71291;DHT22;59073;51.994;4.448;2023-01-04T15:16:57;13.15;82.24
71291;DHT22;59073;51.994;4.448;2023-01-04T15:22:37;13.08;82.14
71291;DHT22;59073;51.994;4.448;2023-01-04T15:25:08;13.10;82.08
71291;DHT22;59073;51.994;4.448;2023-01-04T15:27:37;13.08;82.11
71291;DHT22;59073;51.994;4.448;2023-01-04T15:30:18;13.07;82.02
71291;DHT22;59073;51.994;4.448;2023-01-04T15:32:47;13.05;82.09
71291;DHT22;59073;51.994;4.448;2023-01-04T15:35:13;13.05;82.30
71291;DHT22;59073;51.994;4.448;2023-01-04T15:37:45;13.02;82.34
71291;DHT22;59073;51.994;4.448;2023-01-04T15:40:14;12.92;82.36
71291;DHT22;59073;51.994;4.448;2023-01-04T15:42:40;12.94;82.49
71291;DHT22;59073;51.994;4.448;2023-01-04T15:45:33;12.94;82.38
71291;DHT22;59073;51.994;4.448;2023-01-04T15:47:59;12.90;82.41
71291;DHT22;59073;51.994;4.448;2023-01-04T15:50:33;12.91;82.45
71291;DHT22;59073;51.994;4.448;2023-01-04T15:53:00;12.80;82.47
71291;DHT22;59073;51.994;4.448;2023-01-04T15:55:28;12.83;82.58
71291;DHT22;59073;51.994;4.448;2023-01-04T15:57:55;12.81;82.56
71291;DHT22;59073;51.994;4.448;2023-01-04T16:00:20;12.74;82.76
71291;DHT22;59073;51.994;4.448;2023-01-04T16:02:46;12.67;82.92
71291;DHT22;59073;51.994;4.448;2023-01-04T16:05:14;12.64;83.05
71291;DHT22;59073;51.994;4.448;2023-01-04T16:07:42;12.63;83.15
71291;DHT22;59073;51.994;4.448;2023-01-04T16:10:07;12.64;83.20
71291;DHT22;59073;51.994;4.448;2023-01-04T16:12:33;12.68;82.96
71291;DHT22;59073;51.994;4.448;2023-01-04T16:15:15;12.77;82.79
71291;DHT22;59073;51.994;4.448;2023-01-04T16:17:43;12.77;82.48
71291;DHT22;59073;51.994;4.448;2023-01-04T16:20:14;12.80;82.28
71291;DHT22;59073;51.994;4.448;2023-01-04T16:22:40;12.76;82.46
71291;DHT22;59073;51.994;4.448;2023-01-04T16:25:07;12.77;82.06
71291;DHT22;59073;51.994;4.448;2023-01-04T16:27:45;12.87;81.82
71291;DHT22;59073;51.994;4.448;2023-01-04T16:30:12;12.88;81.73
71291;DHT22;59073;51.994;4.448;2023-01-04T16:32:44;12.87;81.57
71291;DHT22;59073;51.994;4.448;2023-01-04T16:35:10;12.91;81.17
71291;DHT22;59073;51.994;4.448;2023-01-04T16:37:36;12.94;80.92
71291;DHT22;59073;51.994;4.448;2023-01-04T16:40:02;12.90;80.93
71291;DHT22;59073;51.994;4.448;2023-01-04T16:42:31;12.91;80.92
71291;DHT22;59073;51.994;4.448;2023-01-04T16:44:57;12.88;80.78
71291;DHT22;59073;51.994;4.448;2023-01-04T16:47:22;12.94;80.81
71291;DHT22;59073;51.994;4.448;2023-01-04T16:49:51;12.94;80.78
71291;DHT22;59073;51.994;4.448;2023-01-04T16:52:17;12.95;80.65
71291;DHT22;59073;51.994;4.448;2023-01-04T16:54:49;12.91;80.97
71291;DHT22;59073;51.994;4.448;2023-01-04T16:57:14;12.88;81.05
71291;DHT22;59073;51.994;4.448;2023-01-04T16:59:40;12.85;81.02
71291;DHT22;59073;51.994;4.448;2023-01-04T17:02:07;12.77;81.09
71291;DHT22;59073;51.994;4.448;2023-01-04T17:04:33;12.76;81.37
71291;DHT22;59073;51.994;4.448;2023-01-04T17:06:59;12.70;81.47
71291;DHT22;59073;51.994;4.448;2023-01-04T17:09:24;12.68;81.50
71291;DHT22;59073;51.994;4.448;2023-01-04T17:11:50;12.68;81.61
71291;DHT22;59073;51.994;4.448;2023-01-04T17:14:26;12.71;81.18
71291;DHT22;59073;51.994;4.448;2023-01-04T17:16:53;12.81;80.78
71291;DHT22;59073;51.994;4.448;2023-01-04T17:19:19;12.87;80.61
71291;DHT22;59073;51.994;4.448;2023-01-04T17:21:47;12.90;80.37
71291;DHT22;59073;51.994;4.448;2023-01-04T17:24:13;12.97;80.15
71291;DHT22;59073;51.994;4.448;2023-01-04T17:26:39;12.97;80.04
71291;DHT22;59073;51.994;4.448;2023-01-04T17:29:05;12.90;80.11
71291;DHT22;59073;51.994;4.448;2023-01-04T17:31:33;12.88;80.24
71291;DHT22;59073;51.994;4.448;2023-01-04T17:34:11;12.83;80.42
71291;DHT22;59073;51.994;4.448;2023-01-04T17:36:39;12.81;80.51
71291;DHT22;59073;51.994;4.448;2023-01-04T17:39:05;12.81;80.75
71291;DHT22;59073;51.994;4.448;2023-01-04T17:41:31;12.80;80.86
71291;DHT22;59073;51.994;4.448;2023-01-04T17:43:59;12.84;80.82
71291;DHT22;59073;51.994;4.448;2023-01-04T17:46:27;12.77;80.96
71291;DHT22;59073;51.994;4.448;2023-01-04T17:48:53;12.74;81.14
71291;DHT22;59073;51.994;4.448;2023-01-04T17:51:22;12.73;81.14
71291;DHT22;59073;51.994;4.448;2023-01-04T17:53:57;12.78;81.12
71291;DHT22;59073;51.994;4.448;2023-01-04T17:56:28;12.80;81.17
71291;DHT22;59073;51.994;4.448;2023-01-04T17:59:15;12.83;81.11
71291;DHT22;59073;51.994;4.448;2023-01-04T18:02:48;12.76;81.37
71291;DHT22;59073;51.994;4.448;2023-01-04T18:05:15;12.68;81.75
71291;DHT22;59073;51.994;4.448;2023-01-04T18:07:41;12.73;81.75
71291;DHT22;59073;51.994;4.448;2023-01-04T18:10:07;12.74;81.68
71291;DHT22;59073;51.994;4.448;2023-01-04T18:12:36;12.71;81.48
71291;DHT22;59073;51.994;4.448;2023-01-04T18:15:04;12.71;81.66
71291;DHT22;59073;51.994;4.448;2023-01-04T18:17:30;12.71;81.58
71291;DHT22;59073;51.994;4.448;2023-01-04T18:19:56;12.68;81.63
71291;DHT22;59073;51.994;4.448;2023-01-04T18:22:22;12.63;81.72
71291;DHT22;59073;51.994;4.448;2023-01-04T18:24:48;12.67;81.63
71291;DHT22;59073;51.994;4.448;2023-01-04T18:27:15;12.67;81.41
71291;DHT22;59073;51.994;4.448;2023-01-04T18:29:47;12.65;81.25
71291;DHT22;59073;51.994;4.448;2023-01-04T18:32:15;12.63;81.21
71291;DHT22;59073;51.994;4.448;2023-01-04T18:34:41;12.60;81.31
71291;DHT22;59073;51.994;4.448;2023-01-04T18:37:09;12.54;81.35
71291;DHT22;59073;51.994;4.448;2023-01-04T18:39:35;12.54;81.26
71291;DHT22;59073;51.994;4.448;2023-01-04T18:42:01;12.57;81.37
71291;DHT22;59073;51.994;4.448;2023-01-04T18:44:27;12.53;81.27
71291;DHT22;59073;51.994;4.448;2023-01-04T18:46:53;12.60;81.02
71291;DHT22;59073;51.994;4.448;2023-01-04T18:49:18;12.67;81.09
71291;DHT22;59073;51.994;4.448;2023-01-04T18:52:19;12.59;81.25
71291;DHT22;59073;51.994;4.448;2023-01-04T18:54:55;12.59;81.27